Aviation Digital Data Service (ADDS)

Output produced by METARs form (2111 UTC 27 May 2017)
found at http://aviationweather.gov/adds/metars/
 
KLEB 271720Z 2718/2818 VRB03KT P6SM FEW040 SCT150